Time;durP1;ratioP1;P1;durP2;ratioP2;P2;SDS_P1;SDS_P2;PMS_P1;PMS_P2;Temp;Humidity;BMP_temperature;BMP_pressure;BME280_temperature;BME280_humidity;BME280_pressure;Samples;Min_cycle;Max_cycle;Signal;HPM_P1;HPM_P2
2024/02/11 00:01:46;;;;;;;4.30;2.60;;;11.00;70.50;;;;;;6283955;28;20048;-77
2024/02/11 00:04:47;;;;;;;6.20;2.83;;;11.00;70.60;;;;;;6282828;28;20376;-79
2024/02/11 00:07:48;;;;;;;3.38;2.10;;;11.00;71.40;;;;;;6281501;28;20034;-78
2024/02/11 00:10:51;;;;;;;6.97;2.58;;;11.00;70.40;;;;;;6288536;28;20016;-78
2024/02/11 00:13:51;;;;;;;4.70;2.50;;;11.00;70.60;;;;;;6290682;28;21035;-78
2024/02/11 00:16:57;;;;;;;4.13;2.00;;;11.00;70.70;;;;;;6295822;28;20900;-79
2024/02/11 00:19:59;;;;;;;4.20;1.90;;;11.00;70.80;;;;;;6300578;28;20016;-78
2024/02/11 00:23:00;;;;;;;3.25;1.80;;;11.00;70.90;;;;;;6285310;28;20160;-78
2024/02/11 00:26:01;;;;;;;2.70;1.40;;;11.10;71.10;;;;;;6295476;28;20547;-79
2024/02/11 00:29:02;;;;;;;5.40;1.63;;;11.10;70.80;;;;;;6281766;28;20032;-79
2024/02/11 00:32:03;;;;;;;3.78;2.00;;;11.10;70.60;;;;;;6281301;28;20076;-78
2024/02/11 00:35:05;;;;;;;4.90;2.78;;;11.10;70.50;;;;;;6295104;28;20009;-78
2024/02/11 00:38:06;;;;;;;3.97;1.58;;;11.10;70.10;;;;;;6280787;28;20098;-77
2024/02/11 00:41:06;;;;;;;7.10;2.65;;;11.10;69.90;;;;;;6283522;28;20419;-80
2024/02/11 00:44:10;;;;;;;7.82;2.28;;;11.00;69.90;;;;;;6281508;28;20042;-80
2024/02/11 00:47:11;;;;;;;3.38;1.90;;;11.00;70.10;;;;;;6287893;28;20035;-79
2024/02/11 00:50:13;;;;;;;4.35;1.70;;;11.00;69.90;;;;;;6303169;28;20024;-78
2024/02/11 00:53:14;;;;;;;8.45;2.05;;;10.90;69.60;;;;;;6278462;28;20037;-79
2024/02/11 00:56:15;;;;;;;5.05;2.10;;;10.90;69.70;;;;;;6296955;28;20135;-79
2024/02/11 00:59:16;;;;;;;4.18;2.17;;;10.90;69.70;;;;;;6306370;28;20039;-78
2024/02/11 01:02:18;;;;;;;6.03;2.42;;;10.90;70.70;;;;;;6293065;28;20043;-77
2024/02/11 01:05:19;;;;;;;8.02;2.65;;;10.90;70.10;;;;;;6296172;28;20039;-78
2024/02/11 01:08:20;;;;;;;5.93;2.55;;;10.90;70.20;;;;;;6281027;28;20020;-78
2024/02/11 01:11:22;;;;;;;5.60;2.70;;;10.90;70.10;;;;;;6302172;28;20050;-78
2024/02/11 01:14:24;;;;;;;4.80;2.65;;;10.90;70.30;;;;;;6281818;28;20032;-78
2024/02/11 01:17:26;;;;;;;8.00;1.80;;;11.00;70.70;;;;;;6293916;28;20065;-77
2024/02/11 01:20:27;;;;;;;3.15;1.60;;;11.00;70.80;;;;;;6266700;28;20017;-78
2024/02/11 01:23:29;;;;;;;3.70;2.15;;;11.00;70.90;;;;;;6293291;28;20423;-78
2024/02/11 01:26:30;;;;;;;5.47;2.25;;;11.00;70.80;;;;;;6293391;28;20016;-79
2024/02/11 01:29:31;;;;;;;3.95;2.03;;;11.10;70.80;;;;;;6282924;28;20027;-78
2024/02/11 01:32:32;;;;;;;3.45;1.85;;;11.00;70.80;;;;;;6282723;28;20058;-77
2024/02/11 01:35:33;;;;;;;4.72;1.98;;;11.00;70.80;;;;;;6272639;28;20053;-78
2024/02/11 01:38:35;;;;;;;3.00;1.73;;;11.00;70.80;;;;;;6295518;28;20421;-77
2024/02/11 01:41:37;;;;;;;6.18;1.90;;;11.00;70.70;;;;;;6284773;28;20994;-77
2024/02/11 01:44:38;;;;;;;1.77;1.30;;;11.00;70.80;;;;;;6304961;28;20032;-77
2024/02/11 01:47:39;;;;;;;4.28;1.67;;;11.00;70.80;;;;;;6279948;28;20036;-78
2024/02/11 01:50:41;;;;;;;4.30;2.05;;;11.00;70.70;;;;;;6278346;28;20024;-79
2024/02/11 01:53:43;;;;;;;3.85;2.15;;;11.00;70.60;;;;;;6283482;28;20558;-79
2024/02/11 01:56:47;;;;;;;4.38;1.98;;;11.10;70.40;;;;;;6284787;28;20030;-77
2024/02/11 01:59:48;;;;;;;4.25;1.85;;;11.10;70.20;;;;;;6298434;28;20116;-78
2024/02/11 02:02:51;;;;;;;3.53;2.00;;;11.10;70.10;;;;;;6293409;28;20099;-79
2024/02/11 02:05:52;;;;;;;3.95;1.90;;;11.10;70.40;;;;;;6266323;28;20082;-78
2024/02/11 02:09:14;;;;;;;4.25;2.50;;;11.10;70.20;;;;;;6286166;28;20055;-80
2024/02/11 02:12:17;;;;;;;4.32;1.70;;;11.10;70.10;;;;;;6287985;28;20025;-78
2024/02/11 02:15:18;;;;;;;4.85;1.98;;;11.10;69.70;;;;;;6302607;28;20088;-78
2024/02/11 02:18:19;;;;;;;2.72;1.73;;;11.10;69.50;;;;;;6294315;28;20028;-79
2024/02/11 02:21:25;;;;;;;3.88;1.52;;;11.10;69.20;;;;;;6285290;28;20067;-78
2024/02/11 02:24:26;;;;;;;7.90;2.08;;;11.10;69.10;;;;;;6302262;28;20480;-79
2024/02/11 02:27:27;;;;;;;6.28;2.38;;;11.00;69.20;;;;;;6288427;28;20028;-79
2024/02/11 02:30:27;;;;;;;3.45;1.70;;;11.00;69.20;;;;;;6284219;28;20027;-79
2024/02/11 02:33:29;;;;;;;8.57;1.88;;;11.00;69.50;;;;;;6289038;28;20033;-78
2024/02/11 02:36:30;;;;;;;1.77;1.23;;;11.00;69.70;;;;;;6296838;28;20016;-79
2024/02/11 02:39:30;;;;;;;5.68;2.00;;;11.00;69.70;;;;;;6295342;28;20746;-78
2024/02/11 02:42:31;;;;;;;6.82;2.30;;;11.10;69.70;;;;;;6303451;28;20475;-78
2024/02/11 02:45:32;;;;;;;2.65;1.73;;;11.00;69.70;;;;;;6298897;28;20012;-78
2024/02/11 02:48:33;;;;;;;4.55;1.90;;;11.00;69.50;;;;;;6291891;28;20425;-80
2024/02/11 02:51:34;;;;;;;3.80;1.92;;;10.90;69.40;;;;;;6271028;28;20155;-79
2024/02/11 02:54:35;;;;;;;3.55;2.00;;;11.00;69.50;;;;;;6286678;28;20029;-78
2024/02/11 02:57:36;;;;;;;9.32;2.60;;;11.00;69.80;;;;;;6303281;28;20330;-78
2024/02/11 03:00:37;;;;;;;5.90;2.05;;;11.10;70.00;;;;;;6292112;28;20031;-78
2024/02/11 03:03:37;;;;;;;4.85;1.88;;;11.10;69.80;;;;;;6259033;28;20025;-78
2024/02/11 03:06:40;;;;;;;5.60;2.20;;;11.10;69.90;;;;;;6296516;28;20024;-80
2024/02/11 03:09:41;;;;;;;3.53;2.05;;;11.10;70.00;;;;;;6281682;28;20128;-79
2024/02/11 03:12:42;;;;;;;4.28;1.92;;;11.10;69.70;;;;;;6282812;28;20399;-79
2024/02/11 03:15:43;;;;;;;5.05;2.22;;;11.10;69.70;;;;;;6289185;28;20569;-79
2024/02/11 03:18:44;;;;;;;3.60;2.05;;;11.10;69.50;;;;;;6295977;28;20020;-80
2024/02/11 03:21:48;;;;;;;3.65;2.25;;;11.10;69.70;;;;;;6281750;28;20020;-79
2024/02/11 03:24:49;;;;;;;11.65;2.65;;;11.00;69.80;;;;;;6302124;28;20039;-78
2024/02/11 03:27:54;;;;;;;7.30;2.90;;;11.00;69.80;;;;;;6293041;28;20111;-78
2024/02/11 03:30:57;;;;;;;9.30;3.20;;;11.00;70.00;;;;;;6308972;28;20077;-79
2024/02/11 03:34:00;;;;;;;5.30;2.08;;;11.10;69.90;;;;;;6291727;28;20105;-78
2024/02/11 03:37:01;;;;;;;5.30;1.58;;;11.10;69.70;;;;;;6294351;28;20012;-77
2024/02/11 03:40:09;;;;;;;5.10;2.95;;;11.10;69.70;;;;;;6294489;28;20162;-79
2024/02/11 03:43:13;;;;;;;;;;;11.00;69.80;;;;;;6285433;28;20036;-79
2024/02/11 03:46:14;;;;;;;5.35;1.80;;;11.00;70.10;;;;;;6297729;28;19916;-78
2024/02/11 03:49:15;;;;;;;6.15;2.90;;;11.00;69.70;;;;;;6297657;28;20027;-80
2024/02/11 03:52:15;;;;;;;4.35;2.28;;;10.90;69.70;;;;;;6307463;28;20125;-80
2024/02/11 03:55:16;;;;;;;4.68;2.25;;;10.90;69.90;;;;;;6285202;28;20036;-78
2024/02/11 03:58:17;;;;;;;3.15;2.00;;;10.90;70.10;;;;;;6296127;28;20035;-78
2024/02/11 04:01:18;;;;;;;5.03;2.88;;;10.90;70.00;;;;;;6281087;28;20095;-79
2024/02/11 04:04:19;;;;;;;3.88;2.38;;;11.00;70.10;;;;;;6284309;28;20560;-81
2024/02/11 04:07:20;;;;;;;4.55;2.65;;;10.90;70.20;;;;;;6280510;28;20024;-79
2024/02/11 04:10:28;;;;;;;6.45;2.45;;;11.00;70.50;;;;;;6299853;28;20026;-78
2024/02/11 04:13:30;;;;;;;6.70;2.75;;;11.00;70.50;;;;;;6302384;28;20139;-78
2024/02/11 04:16:33;;;;;;;9.20;2.22;;;11.10;70.50;;;;;;6283511;28;20027;-78
2024/02/11 04:19:36;;;;;;;3.95;2.30;;;11.10;70.50;;;;;;6283199;28;20464;-78
2024/02/11 04:22:37;;;;;;;8.10;2.90;;;11.10;70.50;;;;;;6282929;28;20043;-79
2024/02/11 04:25:39;;;;;;;11.10;4.10;;;11.00;70.40;;;;;;6285084;28;20024;-78
2024/02/11 04:28:41;;;;;;;8.27;3.88;;;11.00;70.40;;;;;;6282818;28;20075;-79
2024/02/11 04:31:42;;;;;;;12.02;4.88;;;11.00;70.50;;;;;;6279692;28;20024;-78
2024/02/11 04:34:44;;;;;;;11.82;5.28;;;11.00;70.50;;;;;;6297222;28;20055;-78
2024/02/11 04:37:49;;;;;;;10.82;4.68;;;11.00;70.70;;;;;;6297271;28;20017;-78
2024/02/11 04:40:51;;;;;;;11.60;5.15;;;10.90;70.80;;;;;;6282473;28;20024;-79
2024/02/11 04:43:52;;;;;;;11.65;3.97;;;10.90;70.80;;;;;;6286734;28;20345;-79
2024/02/11 04:46:53;;;;;;;8.52;4.00;;;10.90;70.80;;;;;;6303838;28;20017;-79
2024/02/11 04:49:54;;;;;;;7.53;4.50;;;10.80;70.90;;;;;;6290903;28;20024;-78
2024/02/11 04:52:57;;;;;;;9.27;4.38;;;10.80;71.10;;;;;;6281460;28;20029;-78
2024/02/11 04:55:58;;;;;;;10.10;3.97;;;10.80;71.20;;;;;;6282779;28;20508;-80
2024/02/11 04:59:01;;;;;;;9.02;4.13;;;10.90;71.20;;;;;;6295451;28;20040;-79
2024/02/11 05:02:04;;;;;;;10.30;4.40;;;10.80;71.20;;;;;;6293318;28;20071;-78
2024/02/11 05:05:05;;;;;;;13.23;4.45;;;10.90;71.30;;;;;;6279953;28;20108;-77
2024/02/11 05:08:07;;;;;;;14.63;5.00;;;10.90;71.20;;;;;;6270430;28;20012;-79
2024/02/11 05:11:10;;;;;;;15.13;5.20;;;10.90;71.10;;;;;;6281633;28;20583;-78
2024/02/11 05:14:12;;;;;;;9.90;4.40;;;10.90;71.00;;;;;;6279559;28;20071;-79
2024/02/11 05:17:15;;;;;;;11.02;4.22;;;10.90;70.90;;;;;;6275419;28;20020;-78
2024/02/11 05:20:26;;;;;;;6.72;3.70;;;10.90;70.80;;;;;;6286626;28;20123;-79
2024/02/11 05:23:29;;;;;;;9.40;4.13;;;10.80;70.70;;;;;;6258603;28;20021;-79
2024/02/11 05:26:29;;;;;;;7.45;3.53;;;10.80;70.40;;;;;;6279679;28;20028;-80
2024/02/11 05:29:32;;;;;;;9.10;4.60;;;10.80;70.30;;;;;;6284773;28;20727;-79
2024/02/11 05:32:34;;;;;;;11.00;4.38;;;10.80;70.40;;;;;;6282355;28;20035;-78
2024/02/11 05:35:39;;;;;;;13.10;5.05;;;10.80;70.40;;;;;;6294116;28;20028;-78
2024/02/11 05:38:40;;;;;;;11.02;5.25;;;10.70;70.50;;;;;;6285149;28;20024;-80
2024/02/11 05:41:41;;;;;;;12.95;5.65;;;10.80;70.50;;;;;;6301390;28;20077;-79
2024/02/11 05:44:43;;;;;;;9.32;4.43;;;10.70;70.30;;;;;;6291384;28;20024;-78
2024/02/11 05:47:44;;;;;;;13.93;5.60;;;10.70;70.30;;;;;;6297179;28;20024;-79
2024/02/11 05:50:46;;;;;;;11.52;5.38;;;10.70;70.60;;;;;;6284031;28;20083;-78
2024/02/11 05:53:48;;;;;;;10.23;4.50;;;10.70;70.70;;;;;;6285629;28;20139;-80
2024/02/11 05:56:49;;;;;;;13.20;4.75;;;10.70;70.90;;;;;;6308479;28;20020;-78
2024/02/11 05:59:50;;;;;;;10.88;4.97;;;10.70;70.80;;;;;;6278011;28;20094;-80
2024/02/11 06:02:56;;;;;;;11.30;5.53;;;10.70;70.80;;;;;;6301531;28;20057;-78
2024/02/11 06:05:56;;;;;;;13.57;5.65;;;10.60;70.50;;;;;;6299927;28;20022;-78
2024/02/11 06:08:57;;;;;;;10.05;5.22;;;10.60;70.40;;;;;;6298686;28;20028;-79
2024/02/11 06:11:58;;;;;;;10.60;5.00;;;10.60;70.80;;;;;;6308886;28;20020;-80
2024/02/11 06:15:00;;;;;;;12.52;5.70;;;10.60;70.80;;;;;;6296271;28;20357;-79
2024/02/11 06:18:01;;;;;;;9.70;5.57;;;10.50;70.70;;;;;;6288724;28;20197;-80
2024/02/11 06:21:02;;;;;;;12.93;5.65;;;10.50;71.00;;;;;;6301127;28;20442;-79
2024/02/11 06:24:05;;;;;;;13.38;5.72;;;10.60;71.20;;;;;;6307521;28;20024;-78
2024/02/11 06:27:06;;;;;;;12.93;6.30;;;10.60;71.00;;;;;;6267961;28;20319;-78
2024/02/11 06:30:08;;;;;;;13.80;5.25;;;10.60;70.80;;;;;;6295053;28;20043;-79
2024/02/11 06:33:10;;;;;;;10.95;4.88;;;10.60;70.70;;;;;;6284732;28;20028;-78
2024/02/11 06:36:12;;;;;;;13.30;6.28;;;10.60;70.60;;;;;;6291126;28;20182;-79
2024/02/11 06:39:14;;;;;;;12.13;5.30;;;10.60;70.50;;;;;;6287315;28;20174;-80
2024/02/11 06:42:15;;;;;;;13.43;5.53;;;10.60;70.50;;;;;;6307662;28;20341;-78
2024/02/11 06:45:17;;;;;;;12.98;6.35;;;10.60;70.60;;;;;;6306423;28;20040;-79
2024/02/11 06:48:19;;;;;;;15.23;6.40;;;10.60;70.50;;;;;;6283906;28;20032;-78
2024/02/11 06:51:19;;;;;;;13.20;5.57;;;10.70;70.70;;;;;;6303423;28;20020;-79
2024/02/11 06:54:21;;;;;;;13.50;6.20;;;10.60;70.60;;;;;;6298314;28;20110;-79
2024/02/11 06:57:22;;;;;;;16.60;6.90;;;10.60;70.70;;;;;;6294469;28;20107;-78
2024/02/11 07:00:24;;;;;;;17.40;6.80;;;10.60;70.70;;;;;;6287464;28;20865;-79
2024/02/11 07:03:25;;;;;;;13.60;6.05;;;10.70;70.80;;;;;;6288730;28;20481;-79
2024/02/11 07:06:25;;;;;;;11.68;5.82;;;10.70;70.80;;;;;;6283220;28;20024;-78
2024/02/11 07:09:26;;;;;;;17.55;6.85;;;10.70;71.20;;;;;;6294163;28;20042;-79
2024/02/11 07:12:27;;;;;;;10.40;4.60;;;10.70;70.30;;;;;;6287550;28;20020;-78
2024/02/11 07:15:28;;;;;;;15.05;5.05;;;10.70;70.50;;;;;;6282787;28;20060;-79
2024/02/11 07:18:29;;;;;;;8.82;4.00;;;10.80;70.70;;;;;;6284065;28;20016;-80
2024/02/11 07:21:31;;;;;;;11.40;5.03;;;10.80;70.70;;;;;;6297250;28;20119;-79
2024/02/11 07:24:32;;;;;;;10.63;4.68;;;10.80;70.60;;;;;;6268871;28;20088;-79
2024/02/11 07:27:33;;;;;;;10.30;4.57;;;10.90;70.60;;;;;;6289990;28;20032;-80
2024/02/11 07:30:34;;;;;;;14.27;5.20;;;10.90;70.50;;;;;;6301234;28;20047;-76
2024/02/11 07:33:35;;;;;;;9.57;3.70;;;11.00;70.50;;;;;;6284020;28;20037;-78
2024/02/11 07:36:38;;;;;;;12.98;5.10;;;11.00;70.30;;;;;;6281145;28;20125;-78
2024/02/11 07:39:40;;;;;;;9.30;4.22;;;11.00;70.10;;;;;;6282970;28;20393;-79
2024/02/11 07:42:41;;;;;;;11.98;6.15;;;11.00;70.00;;;;;;6303031;28;20989;-79
2024/02/11 07:45:43;;;;;;;7.57;4.15;;;11.00;69.90;;;;;;6299455;28;20020;-79
2024/02/11 07:48:45;;;;;;;9.30;5.03;;;11.00;69.80;;;;;;6289907;28;20137;-79
2024/02/11 07:51:47;;;;;;;10.07;4.45;;;11.00;69.90;;;;;;6308533;28;20031;-79
2024/02/11 07:54:48;;;;;;;9.38;4.47;;;11.10;69.70;;;;;;6302079;28;20032;-80
2024/02/11 07:57:49;;;;;;;10.23;4.20;;;11.10;69.40;;;;;;6284540;28;20142;-80
2024/02/11 08:00:50;;;;;;;10.63;5.18;;;11.10;69.20;;;;;;6286661;28;20108;-79
2024/02/11 08:03:53;;;;;;;11.70;4.15;;;11.00;69.00;;;;;;6305746;28;20155;-80
2024/02/11 08:06:53;;;;;;;11.30;4.28;;;11.00;69.00;;;;;;6293637;28;20027;-78
2024/02/11 08:09:54;;;;;;;9.60;4.13;;;11.00;68.90;;;;;;6288150;28;20017;-77
2024/02/11 08:12:55;;;;;;;9.18;4.68;;;11.00;68.90;;;;;;6302341;28;20123;-79
2024/02/11 08:15:56;;;;;;;8.27;4.15;;;11.10;68.90;;;;;;6309048;28;20021;-80
2024/02/11 08:18:57;;;;;;;9.30;4.50;;;11.10;68.80;;;;;;6294780;28;20046;-79
2024/02/11 08:21:58;;;;;;;11.55;5.55;;;11.20;68.60;;;;;;6294483;28;20080;-80
2024/02/11 08:24:58;;;;;;;11.52;4.72;;;11.20;68.30;;;;;;6282387;28;20440;-80
2024/02/11 08:27:59;;;;;;;9.57;4.80;;;11.30;68.20;;;;;;6292666;28;20399;-80
2024/02/11 08:31:00;;;;;;;11.10;4.30;;;11.30;67.90;;;;;;6286993;28;20051;-80
2024/02/11 08:34:01;;;;;;;12.10;5.43;;;11.40;68.10;;;;;;6286715;28;20830;-80
2024/02/11 08:37:03;;;;;;;8.85;3.75;;;11.50;68.30;;;;;;6287471;28;20111;-80
2024/02/11 08:40:04;;;;;;;10.13;4.65;;;11.60;68.20;;;;;;6287419;28;20023;-79
2024/02/11 08:43:05;;;;;;;9.18;4.32;;;11.70;68.90;;;;;;6288062;28;20059;-81
2024/02/11 08:46:08;;;;;;;10.75;4.13;;;11.70;67.70;;;;;;6284822;28;21161;-79
2024/02/11 08:49:09;;;;;;;12.85;4.95;;;11.80;67.70;;;;;;6287259;28;20019;-79
2024/02/11 08:52:13;;;;;;;12.68;5.57;;;11.80;67.60;;;;;;6288882;28;20031;-80
2024/02/11 08:55:13;;;;;;;11.20;5.55;;;11.80;67.60;;;;;;6287839;28;20050;-79
2024/02/11 08:58:17;;;;;;;10.65;4.70;;;11.80;67.50;;;;;;6289438;28;20016;-82
2024/02/11 09:01:18;;;;;;;11.52;4.70;;;11.80;67.60;;;;;;6285005;28;20535;-79
2024/02/11 09:04:21;;;;;;;11.52;4.65;;;11.70;67.50;;;;;;6287150;28;20151;-79
2024/02/11 09:07:22;;;;;;;7.70;3.67;;;12.00;67.40;;;;;;6282949;28;20621;-81
2024/02/11 09:10:23;;;;;;;8.07;4.28;;;11.90;68.00;;;;;;6281265;28;20121;-80
2024/02/11 09:13:24;;;;;;;11.30;4.85;;;12.20;67.10;;;;;;6286938;28;20034;-80
2024/02/11 09:16:26;;;;;;;10.35;5.47;;;12.30;66.30;;;;;;6292219;28;20116;-79
2024/02/11 09:19:27;;;;;;;11.30;5.50;;;12.40;65.90;;;;;;6287668;28;20097;-79
2024/02/11 09:22:30;;;;;;;13.93;5.78;;;12.40;65.50;;;;;;6286355;28;20064;-80
2024/02/11 09:25:32;;;;;;;11.38;5.03;;;12.40;65.10;;;;;;6285604;28;20512;-79
2024/02/11 09:28:32;;;;;;;9.98;4.00;;;12.30;64.90;;;;;;6288445;28;20021;-80
2024/02/11 09:31:37;;;;;;;10.27;4.70;;;12.40;64.90;;;;;;6288686;28;20050;-80
2024/02/11 09:34:37;;;;;;;11.57;5.55;;;12.40;64.40;;;;;;6282024;28;20099;-79
2024/02/11 09:37:38;;;;;;;14.13;6.65;;;12.40;64.60;;;;;;6283790;28;20130;-79
2024/02/11 09:40:40;;;;;;;17.40;6.85;;;12.50;64.80;;;;;;6283021;28;20020;-80
2024/02/11 09:43:41;;;;;;;11.13;5.75;;;12.60;64.70;;;;;;6285760;28;20354;-80
2024/02/11 09:46:43;;;;;;;9.75;3.72;;;12.80;64.60;;;;;;6283241;28;20031;-80
2024/02/11 09:49:48;;;;;;;8.15;4.43;;;12.80;63.70;;;;;;6289193;28;20086;-80
2024/02/11 09:52:50;;;;;;;10.20;5.28;;;12.90;63.10;;;;;;6283514;28;20386;-79
2024/02/11 09:55:51;;;;;;;11.77;5.03;;;13.00;63.30;;;;;;6286341;28;20116;-79
2024/02/11 09:58:52;;;;;;;10.30;4.72;;;13.10;63.30;;;;;;6285678;28;20021;-79
2024/02/11 10:01:56;;;;;;;12.30;4.53;;;13.10;63.20;;;;;;6285616;28;20213;-79
2024/02/11 10:05:00;;;;;;;13.27;5.32;;;13.10;62.80;;;;;;6267866;28;20485;-81
2024/02/11 10:08:08;;;;;;;12.60;5.35;;;13.10;62.80;;;;;;6283453;28;20115;-80
2024/02/11 10:11:09;;;;;;;11.77;4.55;;;13.10;62.50;;;;;;6286931;28;20778;-80
2024/02/11 10:14:13;;;;;;;15.15;6.43;;;13.20;62.70;;;;;;6286608;28;20044;-79
2024/02/11 10:17:15;;;;;;;12.15;4.13;;;13.10;62.50;;;;;;6285545;28;21475;-80
2024/02/11 10:20:17;;;;;;;12.68;5.35;;;13.20;62.30;;;;;;6289847;28;20022;-78
2024/02/11 10:23:20;;;;;;;13.65;4.22;;;13.10;61.90;;;;;;6284863;28;20020;-82
2024/02/11 10:26:21;;;;;;;17.88;5.50;;;13.10;61.80;;;;;;6285165;28;20055;-80
2024/02/11 10:29:22;;;;;;;10.73;4.40;;;13.10;61.90;;;;;;6285419;28;20020;-80
2024/02/11 10:32:23;;;;;;;12.18;4.22;;;13.20;62.10;;;;;;6288356;28;20452;-80
2024/02/11 10:35:26;;;;;;;11.25;4.35;;;13.30;62.00;;;;;;6289559;28;20039;-81
2024/02/11 10:38:27;;;;;;;6.95;3.55;;;13.40;61.40;;;;;;6290641;28;20093;-81
2024/02/11 10:41:28;;;;;;;10.65;3.42;;;13.50;61.40;;;;;;6291008;28;20173;-80
2024/02/11 10:44:30;;;;;;;14.05;3.20;;;13.60;61.30;;;;;;6290644;28;20563;-80
2024/02/11 10:47:32;;;;;;;15.93;5.22;;;13.80;60.90;;;;;;6287999;28;20038;-80
2024/02/11 10:50:33;;;;;;;12.40;5.40;;;13.90;60.70;;;;;;6288686;28;20605;-81
2024/02/11 10:53:36;;;;;;;13.27;6.35;;;14.00;60.30;;;;;;6286635;28;20032;-79
2024/02/11 10:56:37;;;;;;;14.95;7.28;;;14.10;59.80;;;;;;6288927;28;20531;-78
2024/02/11 10:59:51;;;;;;;16.77;6.00;;;14.20;59.60;;;;;;6288104;28;20120;-79
2024/02/11 11:03:04;;;;;;;17.05;6.88;;;14.30;59.60;;;;;;6272534;28;20028;-79
2024/02/11 11:06:08;;;;;;;17.48;6.72;;;14.30;59.20;;;;;;6287436;28;20073;-77
2024/02/11 11:09:09;;;;;;;14.98;5.95;;;14.30;58.80;;;;;;6281098;28;20639;-79
2024/02/11 11:12:15;;;;;;;20.77;6.40;;;14.20;58.80;;;;;;6291532;28;20194;-80
2024/02/11 11:15:23;;;;;;;10.30;5.45;;;14.20;58.90;;;;;;6285785;28;20033;-78
2024/02/11 11:18:24;;;;;;;19.98;7.15;;;14.20;58.90;;;;;;6281100;28;20801;-80
2024/02/11 11:21:27;;;;;;;16.65;8.50;;;14.20;59.10;;;;;;6279640;28;20020;-80
2024/02/11 11:24:28;;;;;;;20.52;6.63;;;14.30;59.30;;;;;;6298697;28;20165;-76
2024/02/11 11:27:29;;;;;;;19.58;5.53;;;14.30;59.10;;;;;;6306851;28;20527;-77
2024/02/11 11:30:30;;;;;;;11.82;5.45;;;14.40;59.30;;;;;;6284884;28;20078;-78
2024/02/11 11:33:34;;;;;;;20.35;7.93;;;14.50;59.40;;;;;;6290773;28;20031;-78
2024/02/11 11:36:36;;;;;;;26.50;10.38;;;14.70;59.30;;;;;;6292320;28;20012;-79
2024/02/11 11:39:37;;;;;;;23.63;9.00;;;14.90;58.80;;;;;;6292335;28;20043;-78
2024/02/11 11:42:38;;;;;;;15.70;6.03;;;15.30;58.20;;;;;;6288738;28;20032;-79
2024/02/11 11:45:53;;;;;;;15.82;6.07;;;16.10;57.50;;;;;;6277621;28;20104;-79
2024/02/11 11:48:57;;;;;;;9.85;4.95;;;17.00;55.30;;;;;;6288584;28;20094;-78
2024/02/11 11:51:59;;;;;;;14.20;5.55;;;17.50;53.30;;;;;;6306389;28;20039;-77
2024/02/11 11:55:03;;;;;;;14.23;6.97;;;17.40;53.80;;;;;;6285466;28;20621;-77
2024/02/11 11:58:06;;;;;;;8.05;3.55;;;17.80;53.60;;;;;;6281944;28;20121;-73
2024/02/11 12:01:09;;;;;;;10.18;3.30;;;18.30;52.00;;;;;;6294842;28;20092;-77
2024/02/11 12:04:10;;;;;;;11.60;4.72;;;18.60;49.40;;;;;;6284207;28;20457;-76
2024/02/11 12:07:11;;;;;;;13.27;6.15;;;19.00;49.20;;;;;;6293735;28;20068;-78
2024/02/11 12:10:13;;;;;;;11.75;6.05;;;19.00;49.40;;;;;;6299378;28;20020;-79
2024/02/11 12:13:17;;;;;;;16.17;7.50;;;19.30;48.20;;;;;;6290277;28;20040;-79
2024/02/11 12:16:20;;;;;;;11.73;6.20;;;19.50;48.10;;;;;;6288657;28;20495;-77
2024/02/11 12:19:23;;;;;;;11.82;5.03;;;19.80;48.50;;;;;;6284581;28;20039;-75
2024/02/11 12:22:25;;;;;;;12.85;5.65;;;19.70;48.00;;;;;;6291431;28;20166;-76
2024/02/11 12:25:27;;;;;;;11.10;5.03;;;19.00;48.10;;;;;;6282823;28;20029;-77
2024/02/11 12:28:30;;;;;;;7.85;4.47;;;18.40;48.60;;;;;;6284719;28;20062;-80
2024/02/11 12:31:32;;;;;;;9.40;4.43;;;18.00;49.80;;;;;;6283517;28;20024;-77
2024/02/11 12:34:32;;;;;;;8.88;4.60;;;17.70;50.50;;;;;;6286879;28;20141;-77
2024/02/11 12:37:37;;;;;;;14.80;5.88;;;17.40;51.70;;;;;;6285711;28;20024;-77
2024/02/11 12:40:39;;;;;;;10.82;5.25;;;17.30;51.50;;;;;;6284862;28;20032;-76
2024/02/11 12:43:51;;;;;;;9.90;4.90;;;17.10;51.60;;;;;;6285045;28;20565;-75
2024/02/11 12:46:52;;;;;;;9.23;4.80;;;16.90;52.20;;;;;;6295130;28;20020;-76
2024/02/11 12:49:53;;;;;;;10.60;5.85;;;16.90;52.60;;;;;;6287109;28;20036;-75
2024/02/11 12:52:54;;;;;;;11.23;6.28;;;16.80;52.90;;;;;;6283342;28;20056;-76
2024/02/11 12:55:59;;;;;;;14.77;6.05;;;16.80;53.40;;;;;;6289090;28;20059;-77
2024/02/11 12:58:59;;;;;;;13.13;6.80;;;16.80;53.10;;;;;;6287627;28;20020;-75
2024/02/11 13:02:00;;;;;;;14.15;6.03;;;16.70;53.40;;;;;;6291770;28;20032;-76
2024/02/11 13:05:01;;;;;;;19.85;6.50;;;16.80;53.60;;;;;;6288776;28;20109;-76
2024/02/11 13:08:02;;;;;;;21.88;6.88;;;16.70;53.70;;;;;;6279281;28;20044;-77
2024/02/11 13:11:08;;;;;;;15.38;6.45;;;16.70;53.90;;;;;;6286590;28;20055;-78
2024/02/11 13:14:09;;;;;;;21.77;5.63;;;16.70;53.60;;;;;;6292156;28;20024;-77
2024/02/11 13:17:10;;;;;;;12.50;5.75;;;16.60;53.80;;;;;;6283438;28;20013;-76
2024/02/11 13:20:13;;;;;;;12.68;5.97;;;16.60;54.00;;;;;;6279491;28;20417;-76
2024/02/11 13:23:14;;;;;;;10.80;6.03;;;16.70;54.00;;;;;;6290262;28;20020;-74
2024/02/11 13:26:15;;;;;;;10.75;5.85;;;16.70;53.90;;;;;;6284412;28;20016;-75
2024/02/11 13:29:16;;;;;;;13.73;6.32;;;16.70;53.80;;;;;;6286354;28;20346;-74
2024/02/11 13:32:18;;;;;;;13.20;5.85;;;16.80;54.00;;;;;;6285318;28;20063;-75
2024/02/11 13:35:19;;;;;;;9.80;5.22;;;16.80;53.70;;;;;;6281669;28;20114;-73
2024/02/11 13:38:22;;;;;;;12.25;5.60;;;16.70;53.50;;;;;;6287118;28;20012;-75
2024/02/11 13:41:24;;;;;;;8.23;5.10;;;16.60;53.90;;;;;;6284011;28;20024;-73
2024/02/11 13:44:25;;;;;;;11.05;4.95;;;16.60;54.10;;;;;;6282137;28;20021;-75
2024/02/11 13:47:26;;;;;;;18.10;4.65;;;16.50;54.50;;;;;;6283953;28;20406;-76
2024/02/11 13:50:29;;;;;;;11.15;4.35;;;16.40;54.50;;;;;;6284566;28;20716;-75
2024/02/11 13:53:31;;;;;;;10.07;4.63;;;16.60;54.80;;;;;;6284544;28;20096;-75
2024/02/11 13:56:31;;;;;;;10.43;5.35;;;16.60;54.90;;;;;;6283345;28;20024;-75
2024/02/11 13:59:33;;;;;;;10.35;5.32;;;16.60;55.10;;;;;;6285355;28;20027;-74
2024/02/11 14:02:34;;;;;;;10.05;4.65;;;16.50;55.30;;;;;;6290250;28;20020;-72
2024/02/11 14:05:35;;;;;;;9.55;4.50;;;16.40;55.40;;;;;;6287848;28;20154;-75
2024/02/11 14:08:36;;;;;;;10.15;4.95;;;16.40;55.50;;;;;;6291258;28;21156;-76
2024/02/11 14:11:38;;;;;;;11.05;5.28;;;16.50;55.50;;;;;;6287897;28;20535;-78
2024/02/11 14:14:39;;;;;;;9.68;5.10;;;16.50;55.50;;;;;;6293261;28;20032;-75
2024/02/11 14:17:48;;;;;;;10.85;4.70;;;16.50;55.70;;;;;;6298128;28;20390;-76
2024/02/11 14:20:52;;;;;;;14.40;4.97;;;16.60;55.80;;;;;;6292885;28;20071;-77
2024/02/11 14:23:53;;;;;;;9.63;4.18;;;16.60;55.80;;;;;;6300350;28;20118;-75
2024/02/11 14:26:56;;;;;;;7.05;4.10;;;16.70;55.70;;;;;;6286280;28;20039;-77
2024/02/11 14:29:57;;;;;;;7.20;4.18;;;16.80;55.60;;;;;;6305447;28;20023;-75
2024/02/11 14:32:58;;;;;;;8.65;3.88;;;16.80;55.30;;;;;;6291563;28;20173;-77
2024/02/11 14:35:59;;;;;;;6.80;4.10;;;16.90;55.10;;;;;;6291288;28;20015;-74
2024/02/11 14:39:00;;;;;;;7.90;4.63;;;16.90;55.00;;;;;;6287657;28;20536;-74
2024/02/11 14:42:05;;;;;;;8.18;4.32;;;16.90;55.00;;;;;;6288188;28;21703;-75
2024/02/11 14:45:08;;;;;;;8.90;4.47;;;17.00;54.90;;;;;;6287375;28;20057;-75
2024/02/11 14:48:10;;;;;;;5.45;3.25;;;17.00;54.70;;;;;;6290665;28;20031;-75
2024/02/11 14:51:11;;;;;;;7.53;3.63;;;17.00;54.60;;;;;;6287645;28;20099;-74
2024/02/11 14:54:13;;;;;;;7.35;4.07;;;17.00;54.60;;;;;;6286974;28;20028;-74
2024/02/11 14:57:13;;;;;;;6.07;3.40;;;16.90;54.70;;;;;;6288052;28;20016;-74
2024/02/11 15:00:15;;;;;;;8.07;3.95;;;16.90;54.90;;;;;;6287881;28;20226;-75
2024/02/11 15:03:16;;;;;;;7.22;3.38;;;16.80;54.90;;;;;;6288484;28;20017;-74
2024/02/11 15:06:17;;;;;;;5.43;3.05;;;16.70;54.80;;;;;;6284518;28;21034;-75
2024/02/11 15:09:19;;;;;;;6.20;3.20;;;16.70;55.30;;;;;;6286671;28;20016;-74
2024/02/11 15:12:20;;;;;;;14.73;5.50;;;16.60;54.90;;;;;;6285553;28;20031;-75
2024/02/11 15:15:21;;;;;;;7.97;3.85;;;16.50;54.70;;;;;;6286398;28;20134;-76
2024/02/11 15:18:22;;;;;;;2.90;1.77;;;16.40;54.30;;;;;;6286181;28;20021;-75
2024/02/11 15:21:23;;;;;;;7.85;1.92;;;16.30;54.10;;;;;;6288420;28;20012;-74
2024/02/11 15:24:24;;;;;;;5.85;1.98;;;16.10;54.50;;;;;;6286160;28;20016;-75
2024/02/11 15:27:25;;;;;;;8.43;2.20;;;15.90;54.30;;;;;;6291605;28;20031;-77
2024/02/11 15:30:26;;;;;;;4.15;2.08;;;15.80;54.50;;;;;;6284663;28;20111;-76
2024/02/11 15:33:27;;;;;;;9.45;2.83;;;15.60;54.60;;;;;;6298753;28;20050;-75
2024/02/11 15:36:28;;;;;;;3.67;2.42;;;15.50;54.90;;;;;;6291470;28;20049;-74
2024/02/11 15:39:29;;;;;;;3.65;2.50;;;15.40;55.30;;;;;;6294778;28;20024;-74
2024/02/11 15:42:30;;;;;;;4.40;2.63;;;15.40;55.60;;;;;;6278900;28;20447;-74